Darya Tiana — VRNZ2 — position and weather

sailwx.info

Track history (hours):
 
Tides and Currents Weather Stations Pressure Air Temp Water Temp Dewpoint Dewpoint Depression Visibility Wind Speed Wind Dir Waves Ship Positions

Darya Tiana

Last reported at 2018-Feb-03 16:00 UTC. Time now 2018-Feb-25 23:58 UTC.
Position N 36°51' W 075°51'.
Warning: this ship's position is 22 days out of date.

Length 200 m; draft 10.5 m.

Type: Cargo ship. MMSI: 477699800.

Date/timePositionNaut miles runAvg speedWind from/ knotsBaromVisibWave heightAir tempDewpointWater temp
2018-Feb-03 16:00N 36°51' W 075°51'510.5
2018-Feb-03 15:29N 36°55' W 075°56'5 9.6
2018-Feb-03 15:00N 36°57' W 076°01'510.0
2018-Feb-03 14:30N 36°59' W 076°07'610.9
2018-Feb-03 14:00N 37°00' W 076°14'6 9.1
2018-Feb-03 13:23N 36°58' W 076°20'4 9.9
2018-Feb-03 13:00N 36°54' W 076°20'3 6.0
2018-Feb-03 12:30N 36°51' W 076°18'2 4.0
2018-Feb-03 12:00N 36°49' W 076°17'2 3.5
2018-Feb-03 11:30N 36°48' W 076°18'1 2.2
2018-Feb-03 11:00N 36°47' W 076°19'0 0.7
2018-Feb-03 10:30N 36°47' W 076°18'0 0.4
2018-Feb-03 10:00N 36°47' W 076°18'0 0.0
2018-Feb-03 09:30N 36°47' W 076°18'0 0.0
2018-Feb-03 09:00N 36°47' W 076°18'0 0.0
2018-Feb-03 08:30N 36°47' W 076°18'0 0.0
2018-Feb-03 08:00N 36°47' W 076°18'0 0.0
2018-Feb-03 06:30N 36°47' W 076°18'0 0.0
2018-Feb-03 06:00N 36°47' W 076°18'0 0.0
2018-Feb-03 05:30N 36°47' W 076°18'0 0.0
2018-Feb-03 05:01N 36°47' W 076°18'0 0.0
2018-Feb-03 04:00N 36°47' W 076°18'0 0.0
2018-Feb-03 03:30N 36°47' W 076°18'0 0.0
2018-Feb-03 02:00N 36°47' W 076°18'0 0.0
2018-Feb-03 01:30N 36°47' W 076°18'0 0.0
2018-Feb-03 01:00N 36°47' W 076°18'0 0.0
2018-Feb-03 00:30N 36°47' W 076°18'0 0.0
2018-Feb-03 00:00N 36°47' W 076°18'0 0.0
2018-Feb-02 23:30N 36°47' W 076°18'0 0.0
2018-Feb-02 22:54N 36°47' W 076°18'0 0.0
2018-Feb-02 22:30N 36°47' W 076°18'0 0.0
2018-Feb-02 22:00N 36°47' W 076°18'0 0.0
2018-Feb-02 21:30N 36°47' W 076°18'0 0.0
2018-Feb-02 21:00N 36°47' W 076°18'0 0.0
2018-Feb-02 20:30N 36°47' W 076°18'0 0.0
2018-Feb-02 20:00N 36°47' W 076°18'0 0.0
2018-Feb-02 19:00N 36°47' W 076°18'0 0.0
2018-Feb-02 18:30N 36°47' W 076°18'0 0.0
2018-Feb-02 18:00N 36°47' W 076°18'0 0.0
2018-Feb-02 17:30N 36°47' W 076°18'0 0.0
2018-Feb-02 16:57N 36°47' W 076°18'0 0.0
2018-Feb-02 16:30N 36°47' W 076°18'0 0.0
2018-Feb-02 15:30N 36°47' W 076°18'0 0.0
2018-Feb-02 14:30N 36°47' W 076°18'0 0.0
2018-Feb-02 14:00N 36°47' W 076°18'0 0.0
2018-Feb-02 13:30N 36°47' W 076°18'0 0.0
2018-Feb-02 13:00N 36°47' W 076°18'0 0.0
2018-Feb-02 12:30N 36°47' W 076°18'0 0.0
2018-Feb-02 12:00N 36°47' W 076°18'0 0.0
2018-Feb-02 11:30N 36°47' W 076°18'0 0.0
2018-Feb-02 11:00N 36°47' W 076°18'0 0.0
2018-Feb-02 10:30N 36°47' W 076°18'0 0.0
2018-Feb-02 10:00N 36°47' W 076°18'0 0.0
2018-Feb-02 09:30N 36°47' W 076°18'0 0.0
2018-Feb-02 09:00N 36°47' W 076°18'0 0.0
2018-Feb-02 08:30N 36°47' W 076°18'0 0.0
2018-Feb-02 08:00N 36°47' W 076°18'0 0.0
2018-Feb-02 07:24N 36°47' W 076°18'0 0.0
2018-Feb-02 07:00N 36°47' W 076°18'0 0.0
2018-Feb-02 06:30N 36°47' W 076°18'0 0.0
2018-Feb-02 06:00N 36°47' W 076°18'0 0.0
2018-Feb-02 05:30N 36°47' W 076°18'0 0.0
2018-Feb-02 05:00N 36°47' W 076°18'0 0.0
2018-Feb-02 04:30N 36°47' W 076°18'0 0.0
2018-Feb-02 04:00N 36°47' W 076°18'0 0.0
2018-Feb-02 03:30N 36°47' W 076°18'0 0.0
2018-Feb-02 03:00N 36°47' W 076°18'0 0.0
2018-Feb-02 02:30N 36°47' W 076°18'0 0.0
2018-Feb-02 02:00N 36°47' W 076°18'0 0.0
2018-Feb-02 01:30N 36°47' W 076°18'0 0.0
2018-Feb-02 00:57N 36°47' W 076°18'0 0.0
2018-Feb-02 00:30N 36°47' W 076°18'0 0.0
2018-Feb-02 00:00N 36°47' W 076°18'0 0.0
2018-Feb-01 23:30N 36°47' W 076°18'0 0.0
2018-Feb-01 23:00N 36°47' W 076°18'0 0.0
2018-Feb-01 22:00N 36°47' W 076°18'0 0.0
2018-Feb-01 21:30N 36°47' W 076°18'0 0.0
2018-Feb-01 19:30N 36°47' W 076°18'0 0.0
2018-Feb-01 19:00N 36°47' W 076°18'0 0.0
2018-Feb-01 18:30N 36°47' W 076°18'0 0.0
2018-Feb-01 18:00N 36°47' W 076°18'0 0.0
2018-Feb-01 17:30N 36°47' W 076°18'0 0.0
2018-Feb-01 17:00N 36°47' W 076°18'0 0.0
2018-Feb-01 16:30N 36°47' W 076°18'0 0.0
2018-Feb-01 16:00N 36°47' W 076°18'0 0.0
2018-Feb-01 15:30N 36°47' W 076°18'0 0.0
2018-Feb-01 15:00N 36°47' W 076°18'0 0.0
2018-Feb-01 13:30N 36°47' W 076°18'0 0.0
2018-Feb-01 13:00N 36°47' W 076°18'0 0.0
2018-Feb-01 12:30N 36°47' W 076°18'0 0.0
2018-Feb-01 12:00N 36°47' W 076°18'0 0.0
2018-Feb-01 11:00N 36°47' W 076°18'0 0.0
2018-Feb-01 10:30N 36°47' W 076°18'0 0.0
2018-Feb-01 10:00N 36°47' W 076°18'0 0.0
2018-Feb-01 09:30N 36°47' W 076°18'0 0.0
2018-Feb-01 09:00N 36°47' W 076°18'0 0.0
2018-Feb-01 08:30N 36°47' W 076°18'0 0.0
2018-Feb-01 07:30N 36°47' W 076°18'0 0.0
2018-Feb-01 07:00N 36°47' W 076°18'0 0.0
2018-Feb-01 06:30N 36°47' W 076°18'0 0.0
2018-Feb-01 06:00N 36°47' W 076°18'0 0.0
2018-Feb-01 05:30N 36°47' W 076°18'0 0.0
2018-Feb-01 05:00N 36°47' W 076°18'0 0.0
2018-Feb-01 04:30N 36°47' W 076°18'0 0.0
2018-Feb-01 04:00N 36°47' W 076°18'0 0.0
2018-Feb-01 03:00N 36°47' W 076°18'0 0.0
2018-Feb-01 02:27N 36°47' W 076°18'0 0.0
2018-Feb-01 02:00N 36°47' W 076°18'0 0.0
2018-Feb-01 01:24N 36°47' W 076°18'0 0.0
2018-Feb-01 01:00N 36°47' W 076°18'0 0.0
2018-Feb-01 00:30N 36°47' W 076°18'0 0.0
2018-Feb-01 00:00N 36°47' W 076°18'0 0.0
2018-Jan-31 23:00N 36°47' W 076°18'0 0.0
2018-Jan-31 22:30N 36°47' W 076°18'0 0.0
2018-Jan-31 21:00N 36°47' W 076°18'0 0.0
2018-Jan-31 20:30N 36°47' W 076°18'0 0.0
2018-Jan-31 20:00N 36°47' W 076°18'0 0.0
2018-Jan-31 19:30N 36°47' W 076°18'0 0.0
2018-Jan-31 19:00N 36°47' W 076°18'0 0.0
2018-Jan-31 18:30N 36°47' W 076°18'0 0.0
2018-Jan-31 17:57N 36°47' W 076°18'0 0.0
2018-Jan-31 17:30N 36°47' W 076°18'0 0.0
2018-Jan-31 17:00N 36°47' W 076°18'0 0.0
2018-Jan-31 16:30N 36°47' W 076°18'0 0.0
2018-Jan-31 16:00N 36°47' W 076°18'0 0.0
2018-Jan-31 15:30N 36°47' W 076°18'0 0.0
2018-Jan-31 15:00N 36°47' W 076°18'0 0.0
2018-Jan-31 14:30N 36°47' W 076°18'0 0.0
2018-Jan-31 13:00N 36°47' W 076°18'0 0.0
2018-Jan-31 12:30N 36°47' W 076°18'0 0.0
2018-Jan-31 12:00N 36°47' W 076°18'0 0.0
2018-Jan-31 11:30N 36°47' W 076°18'0 0.0
2018-Jan-31 11:00N 36°47' W 076°18'0 0.0
2018-Jan-31 10:30N 36°47' W 076°18'0 0.0
2018-Jan-31 10:00N 36°47' W 076°18'0 0.0
2018-Jan-31 09:30N 36°47' W 076°18'0 0.0
2018-Jan-31 08:57N 36°47' W 076°18'0 0.0
2018-Jan-31 08:30N 36°47' W 076°18'0 0.0
2018-Jan-31 08:00N 36°47' W 076°18'0 0.0
2018-Jan-31 07:30N 36°47' W 076°18'0 0.0
2018-Jan-31 07:00N 36°47' W 076°18'0 0.0
2018-Jan-31 06:30N 36°47' W 076°18'0 0.0
2018-Jan-31 06:00N 36°47' W 076°18'0 0.0
2018-Jan-31 05:30N 36°47' W 076°18'0 0.0
2018-Jan-31 05:00N 36°47' W 076°18'0 0.0
2018-Jan-31 04:30N 36°47' W 076°18'0 0.0
2018-Jan-31 04:00N 36°47' W 076°18'0 0.0
2018-Jan-31 03:30N 36°47' W 076°18'0 0.0
2018-Jan-31 03:00N 36°47' W 076°18'0 0.0
2018-Jan-31 02:30N 36°47' W 076°18'0 0.0
2018-Jan-31 02:00N 36°47' W 076°18'0 0.0
2018-Jan-31 01:30N 36°47' W 076°18'0 0.0
2018-Jan-31 01:00N 36°47' W 076°18'0 0.0
2018-Jan-31 00:00N 36°47' W 076°18'0 0.0
2018-Jan-30 23:30N 36°47' W 076°18'0 0.0
2018-Jan-30 23:00N 36°47' W 076°18'0 0.0
2018-Jan-30 22:30N 36°47' W 076°18'0 0.0
2018-Jan-30 21:30N 36°47' W 076°18'0 0.0
2018-Jan-30 20:57N 36°47' W 076°18'0 0.0
2018-Jan-30 20:27N 36°47' W 076°18'0 0.0
2018-Jan-30 20:00N 36°47' W 076°18'0 0.0
2018-Jan-30 19:30N 36°47' W 076°18'0 0.0
2018-Jan-30 19:00N 36°47' W 076°18'0 0.0
2018-Jan-30 18:30N 36°47' W 076°18'0 0.0
2018-Jan-30 18:00N 36°47' W 076°18'0 0.0
2018-Jan-30 17:30N 36°47' W 076°18'0 0.0
2018-Jan-30 17:00N 36°47' W 076°18'0 0.0
2018-Jan-30 16:30N 36°47' W 076°18'0 0.0
2018-Jan-30 16:00N 36°47' W 076°18'0 0.0
2018-Jan-30 15:30N 36°47' W 076°18'0 0.0
2018-Jan-30 15:00N 36°47' W 076°18'0 0.0
2018-Jan-30 14:30N 36°47' W 076°18'0 0.0
2018-Jan-30 13:30N 36°47' W 076°18'0 0.0
2018-Jan-30 13:00N 36°47' W 076°18'0 0.0
2018-Jan-30 12:30N 36°47' W 076°18'0 0.0
2018-Jan-30 11:57N 36°47' W 076°18'0 0.0
2018-Jan-30 11:30N 36°47' W 076°18'0 0.0
2018-Jan-30 10:30N 36°47' W 076°18'0 0.0
2018-Jan-30 09:27N 36°47' W 076°18'0 0.0
2018-Jan-30 09:00N 36°47' W 076°18'0 0.0
2018-Jan-30 08:30N 36°47' W 076°18'0 0.0
2018-Jan-30 08:00N 36°47' W 076°18'0 0.0
2018-Jan-30 07:30N 36°47' W 076°18'0 0.0
2018-Jan-30 06:57N 36°47' W 076°18'0 0.0
2018-Jan-30 06:30N 36°47' W 076°18'0 0.0
2018-Jan-30 06:00N 36°47' W 076°18'0 0.0
2018-Jan-30 05:30N 36°47' W 076°18'0 0.0
2018-Jan-30 05:00N 36°47' W 076°18'0 0.0
2018-Jan-30 04:30N 36°47' W 076°18'0 0.0
2018-Jan-30 04:00N 36°47' W 076°18'0 0.0
2018-Jan-30 03:30N 36°47' W 076°18'0 0.0
2018-Jan-30 03:00N 36°47' W 076°18'0 0.0
2018-Jan-30 02:30N 36°47' W 076°18'0 0.0
2018-Jan-30 02:00N 36°47' W 076°18'0 0.0
2018-Jan-30 01:30N 36°47' W 076°18'0 0.0
2018-Jan-30 01:00N 36°47' W 076°18'0 0.0
2018-Jan-30 00:30N 36°47' W 076°18'0 0.0
2018-Jan-30 00:00N 36°47' W 076°18'0 0.0
2018-Jan-29 23:30N 36°47' W 076°18'0 0.0
2018-Jan-29 23:00N 36°47' W 076°18'0 0.0
2018-Jan-29 22:30N 36°47' W 076°18'0 0.0
2018-Jan-29 22:00N 36°47' W 076°18'0 0.0
2018-Jan-29 21:30N 36°47' W 076°18'0 0.0
2018-Jan-29 21:00N 36°47' W 076°18'0 0.0
2018-Jan-29 20:30N 36°47' W 076°18'0 0.0
2018-Jan-29 20:00N 36°47' W 076°18'0 0.0
2018-Jan-29 19:30N 36°47' W 076°18'0 0.0
2018-Jan-29 19:00N 36°47' W 076°18'0 0.0
2018-Jan-29 18:30N 36°47' W 076°18'0 0.0
2018-Jan-29 18:00N 36°47' W 076°18'0 0.0
2018-Jan-29 17:30N 36°47' W 076°18'0 0.0
2018-Jan-29 17:00N 36°47' W 076°18'0 0.0
2018-Jan-29 16:30N 36°47' W 076°18'0 0.0
2018-Jan-29 16:00N 36°47' W 076°18'0 0.0
2018-Jan-29 15:30N 36°47' W 076°18'0 0.0
2018-Jan-29 15:00N 36°47' W 076°18'0 0.0
2018-Jan-29 14:30N 36°47' W 076°18'0 0.0
2018-Jan-29 14:00N 36°47' W 076°18'0 0.0
2018-Jan-29 13:30N 36°47' W 076°18'0 0.0
2018-Jan-29 13:00N 36°47' W 076°18'0 0.0
2018-Jan-29 12:30N 36°47' W 076°18'0 0.0
2018-Jan-29 12:00N 36°47' W 076°18'0 0.0
2018-Jan-29 11:30N 36°47' W 076°18'0 0.0
2018-Jan-29 11:00N 36°47' W 076°18'0 0.0
2018-Jan-29 10:30N 36°47' W 076°18'0 0.0
2018-Jan-29 10:00N 36°47' W 076°18'0 0.0
2018-Jan-29 09:30N 36°47' W 076°18'0 0.0
2018-Jan-29 09:00N 36°47' W 076°18'0 0.0
2018-Jan-29 08:30N 36°47' W 076°18'0 0.0
2018-Jan-29 08:00N 36°47' W 076°18'0 0.0
2018-Jan-29 07:30N 36°47' W 076°18'0 0.0
2018-Jan-29 07:00N 36°47' W 076°18'0 0.0
2018-Jan-29 06:30N 36°47' W 076°18'0 0.0
2018-Jan-29 06:00N 36°47' W 076°18'0 0.0
2018-Jan-29 05:30N 36°47' W 076°18'0 0.0
2018-Jan-29 05:00N 36°47' W 076°18'0 0.0
2018-Jan-29 04:30N 36°47' W 076°18'0 0.0
2018-Jan-29 04:00N 36°47' W 076°18'0 0.0
2018-Jan-29 03:30N 36°47' W 076°18'0 0.0
2018-Jan-29 03:00N 36°47' W 076°18'0 0.0
2018-Jan-29 02:30N 36°47' W 076°18'0 0.0
2018-Jan-29 02:00N 36°47' W 076°18'0 0.0
2018-Jan-29 01:30N 36°47' W 076°18'0 0.0
2018-Jan-29 01:00N 36°47' W 076°18'0 0.0
2018-Jan-29 00:30N 36°47' W 076°18'0 0.0
2018-Jan-29 00:00N 36°47' W 076°18'0 0.0
2018-Jan-28 23:30N 36°47' W 076°18'0 0.0
2018-Jan-28 23:00N 36°47' W 076°18'0 0.0
2018-Jan-28 22:30N 36°47' W 076°18'0 0.0
2018-Jan-28 22:00N 36°47' W 076°18'0 0.0
2018-Jan-28 21:30N 36°47' W 076°18'0 0.0
2018-Jan-28 21:00N 36°47' W 076°18'0 0.0
2018-Jan-28 20:30N 36°47' W 076°18'0 0.0
2018-Jan-28 20:00N 36°47' W 076°18'0 0.0
2018-Jan-28 19:30N 36°47' W 076°18'0 0.0
2018-Jan-28 19:00N 36°47' W 076°18'0 0.0
2018-Jan-28 18:30N 36°47' W 076°18'0 0.0
2018-Jan-28 18:00N 36°47' W 076°18'0 0.0
2018-Jan-28 17:30N 36°47' W 076°18'0 0.0
2018-Jan-28 17:00N 36°47' W 076°18'0 0.0
2018-Jan-28 16:30N 36°47' W 076°18'0 0.0
2018-Jan-28 16:00N 36°47' W 076°18'0 0.0
2018-Jan-28 15:30N 36°47' W 076°18'0 0.0
2018-Jan-28 15:00N 36°47' W 076°18'0 0.0
2018-Jan-28 14:30N 36°47' W 076°18'0 0.0
2018-Jan-28 14:00N 36°47' W 076°18'0 0.0
2018-Jan-28 13:30N 36°47' W 076°18'0 0.0
2018-Jan-28 13:00N 36°47' W 076°18'0 0.0
2018-Jan-28 12:30N 36°47' W 076°18'0 0.0
2018-Jan-28 12:00N 36°47' W 076°18'0 0.0
2018-Jan-28 11:30N 36°47' W 076°18'0 0.0
2018-Jan-28 11:00N 36°47' W 076°18'0 0.0
2018-Jan-28 10:30N 36°47' W 076°18'0 0.0
2018-Jan-28 10:00N 36°47' W 076°18'0 0.0
2018-Jan-28 09:30N 36°47' W 076°18'0 0.0
2018-Jan-28 09:00N 36°47' W 076°18'0 0.0
2018-Jan-28 08:30N 36°47' W 076°18'0 0.0
2018-Jan-28 08:00N 36°47' W 076°18'0 0.0
2018-Jan-28 07:30N 36°47' W 076°18'0 0.0
2018-Jan-28 07:00N 36°47' W 076°18'0 0.0
2018-Jan-28 06:30N 36°47' W 076°18'0 0.0
2018-Jan-28 06:00N 36°47' W 076°18'0 0.0
2018-Jan-28 05:30N 36°47' W 076°18'0 0.0
2018-Jan-28 05:00N 36°47' W 076°18'0 0.0
2018-Jan-28 04:30N 36°47' W 076°18'0 0.0
2018-Jan-28 04:00N 36°47' W 076°18'0 0.0
2018-Jan-28 03:30N 36°47' W 076°18'0 0.0
2018-Jan-28 03:00N 36°47' W 076°18'0 0.0
2018-Jan-28 02:30N 36°47' W 076°18'0 0.0
2018-Jan-28 02:00N 36°47' W 076°18'0 0.0
2018-Jan-28 01:30N 36°47' W 076°18'0 0.0
2018-Jan-28 01:00N 36°47' W 076°18'0 0.0
2018-Jan-28 00:30N 36°47' W 076°18'0 0.0
2018-Jan-28 00:00N 36°47' W 076°18'0 0.0
2018-Jan-27 23:30N 36°47' W 076°18'0 0.0
2018-Jan-27 23:00N 36°47' W 076°18'0 0.0
2018-Jan-27 22:30N 36°47' W 076°18'0 0.0
2018-Jan-27 22:00N 36°47' W 076°18'0 0.0
2018-Jan-27 21:30N 36°47' W 076°18'0 0.0
2018-Jan-27 21:00N 36°47' W 076°18'0 0.0
2018-Jan-27 20:30N 36°47' W 076°18'0 0.0
2018-Jan-27 20:00N 36°47' W 076°18'0 0.0
2018-Jan-27 19:30N 36°47' W 076°18'0 0.0
2018-Jan-27 19:00N 36°47' W 076°18'0 0.0
2018-Jan-27 18:30N 36°47' W 076°18'0 0.0
2018-Jan-27 18:00N 36°47' W 076°18'0 0.0
2018-Jan-27 17:30N 36°47' W 076°18'0 0.0
2018-Jan-27 17:00N 36°47' W 076°18'0 0.1
2018-Jan-27 16:30N 36°47' W 076°18'1 2.2
2018-Jan-27 16:00N 36°48' W 076°18'2 4.2
2018-Jan-27 15:30N 36°50' W 076°18'3 5.7
2018-Jan-27 15:00N 36°52' W 076°20'4 8.5
2018-Jan-27 14:30N 36°56' W 076°20'4 9.1
2018-Jan-27 14:01N 37°00' W 076°17'611.4
2018-Jan-27 13:30N 36°59' W 076°10'612.5
2018-Jan-27 13:00N 36°57' W 076°03'5 9.5
2018-Jan-27 12:30N 36°56' W 075°57'4 7.8
2018-Jan-27 12:00N 36°54' W 075°53'  
2018-Jan-25 00:23N 38°45' W 075°01'410.9
2018-Jan-24 23:59N 38°49' W 075°04'712.9
2018-Jan-24 23:25N 38°56' W 075°06'614.8
2018-Jan-24 23:00N 39°02' W 075°09'714.4
2018-Jan-24 22:30N 39°08' W 075°14'713.8
2018-Jan-24 22:00N 39°14' W 075°18'713.3
2018-Jan-24 21:30N 39°19' W 075°24'612.5
2018-Jan-24 21:00N 39°23' W 075°29'611.5
2018-Jan-24 20:30N 39°28' W 075°34'611.3
2018-Jan-24 20:00N 39°34' W 075°33'5 9.9
2018-Jan-24 19:30N 39°39' W 075°34'510.8
2018-Jan-24 19:01N 39°43' W 075°30'510.1
2018-Jan-24 18:30N 39°47' W 075°27'5 9.4
2018-Jan-24 18:00N 39°50' W 075°22'510.2
2018-Jan-24 17:30N 39°51' W 075°15'4 8.5
2018-Jan-24 17:01N 39°53' W 075°10'3 5.7
2018-Jan-24 16:31N 39°55' W 075°08'4 7.5
2018-Jan-24 16:00N 39°59' W 075°05'  
Track history (hours):
 
Tides and Currents Weather Stations Pressure Air Temp Water Temp Dewpoint Dewpoint Depression Visibility Wind Speed Wind Dir Waves Ship Positions

Darya Tiana

Last reported at 2018-Feb-03 16:00 UTC. Time now 2018-Feb-25 23:58 UTC.
Position N 36°51' W 075°51'.
Warning: this ship's position is 22 days out of date.

Length 200 m; draft 10.5 m.

Type: Cargo ship. MMSI: 477699800.

Date/timePositionNaut miles runAvg speedWind from/ knotsBaromVisibWave heightAir tempDewpointWater temp
2018-Feb-03 16:00N 36°51' W 075°51'510.5
2018-Feb-03 15:29N 36°55' W 075°56'5 9.6
2018-Feb-03 15:00N 36°57' W 076°01'510.0
2018-Feb-03 14:30N 36°59' W 076°07'610.9
2018-Feb-03 14:00N 37°00' W 076°14'6 9.1
2018-Feb-03 13:23N 36°58' W 076°20'4 9.9
2018-Feb-03 13:00N 36°54' W 076°20'3 6.0
2018-Feb-03 12:30N 36°51' W 076°18'2 4.0
2018-Feb-03 12:00N 36°49' W 076°17'2 3.5
2018-Feb-03 11:30N 36°48' W 076°18'1 2.2
2018-Feb-03 11:00N 36°47' W 076°19'0 0.7
2018-Feb-03 10:30N 36°47' W 076°18'0 0.4
2018-Feb-03 10:00N 36°47' W 076°18'0 0.0
2018-Feb-03 09:30N 36°47' W 076°18'0 0.0
2018-Feb-03 09:00N 36°47' W 076°18'0 0.0
2018-Feb-03 08:30N 36°47' W 076°18'0 0.0
2018-Feb-03 08:00N 36°47' W 076°18'0 0.0
2018-Feb-03 06:30N 36°47' W 076°18'0 0.0
2018-Feb-03 06:00N 36°47' W 076°18'0 0.0
2018-Feb-03 05:30N 36°47' W 076°18'0 0.0
2018-Feb-03 05:01N 36°47' W 076°18'0 0.0
2018-Feb-03 04:00N 36°47' W 076°18'0 0.0
2018-Feb-03 03:30N 36°47' W 076°18'0 0.0
2018-Feb-03 02:00N 36°47' W 076°18'0 0.0
2018-Feb-03 01:30N 36°47' W 076°18'0 0.0
2018-Feb-03 01:00N 36°47' W 076°18'0 0.0
2018-Feb-03 00:30N 36°47' W 076°18'0 0.0
2018-Feb-03 00:00N 36°47' W 076°18'0 0.0
2018-Feb-02 23:30N 36°47' W 076°18'0 0.0
2018-Feb-02 22:54N 36°47' W 076°18'0 0.0
2018-Feb-02 22:30N 36°47' W 076°18'0 0.0
2018-Feb-02 22:00N 36°47' W 076°18'0 0.0
2018-Feb-02 21:30N 36°47' W 076°18'0 0.0
2018-Feb-02 21:00N 36°47' W 076°18'0 0.0
2018-Feb-02 20:30N 36°47' W 076°18'0 0.0
2018-Feb-02 20:00N 36°47' W 076°18'0 0.0
2018-Feb-02 19:00N 36°47' W 076°18'0 0.0
2018-Feb-02 18:30N 36°47' W 076°18'0 0.0
2018-Feb-02 18:00N 36°47' W 076°18'0 0.0
2018-Feb-02 17:30N 36°47' W 076°18'0 0.0
2018-Feb-02 16:57N 36°47' W 076°18'0 0.0
2018-Feb-02 16:30N 36°47' W 076°18'0 0.0
2018-Feb-02 15:30N 36°47' W 076°18'0 0.0
2018-Feb-02 14:30N 36°47' W 076°18'0 0.0
2018-Feb-02 14:00N 36°47' W 076°18'0 0.0
2018-Feb-02 13:30N 36°47' W 076°18'0 0.0
2018-Feb-02 13:00N 36°47' W 076°18'0 0.0
2018-Feb-02 12:30N 36°47' W 076°18'0 0.0
2018-Feb-02 12:00N 36°47' W 076°18'0 0.0
2018-Feb-02 11:30N 36°47' W 076°18'0 0.0
2018-Feb-02 11:00N 36°47' W 076°18'0 0.0
2018-Feb-02 10:30N 36°47' W 076°18'0 0.0
2018-Feb-02 10:00N 36°47' W 076°18'0 0.0
2018-Feb-02 09:30N 36°47' W 076°18'0 0.0
2018-Feb-02 09:00N 36°47' W 076°18'0 0.0
2018-Feb-02 08:30N 36°47' W 076°18'0 0.0
2018-Feb-02 08:00N 36°47' W 076°18'0 0.0
2018-Feb-02 07:24N 36°47' W 076°18'0 0.0
2018-Feb-02 07:00N 36°47' W 076°18'0 0.0
2018-Feb-02 06:30N 36°47' W 076°18'0 0.0
2018-Feb-02 06:00N 36°47' W 076°18'0 0.0
2018-Feb-02 05:30N 36°47' W 076°18'0 0.0
2018-Feb-02 05:00N 36°47' W 076°18'0 0.0
2018-Feb-02 04:30N 36°47' W 076°18'0 0.0
2018-Feb-02 04:00N 36°47' W 076°18'0 0.0
2018-Feb-02 03:30N 36°47' W 076°18'0 0.0
2018-Feb-02 03:00N 36°47' W 076°18'0 0.0
2018-Feb-02 02:30N 36°47' W 076°18'0 0.0
2018-Feb-02 02:00N 36°47' W 076°18'0 0.0
2018-Feb-02 01:30N 36°47' W 076°18'0 0.0
2018-Feb-02 00:57N 36°47' W 076°18'0 0.0
2018-Feb-02 00:30N 36°47' W 076°18'0 0.0
2018-Feb-02 00:00N 36°47' W 076°18'0 0.0
2018-Feb-01 23:30N 36°47' W 076°18'0 0.0
2018-Feb-01 23:00N 36°47' W 076°18'0 0.0
2018-Feb-01 22:00N 36°47' W 076°18'0 0.0
2018-Feb-01 21:30N 36°47' W 076°18'0 0.0
2018-Feb-01 19:30N 36°47' W 076°18'0 0.0
2018-Feb-01 19:00N 36°47' W 076°18'0 0.0
2018-Feb-01 18:30N 36°47' W 076°18'0 0.0
2018-Feb-01 18:00N 36°47' W 076°18'0 0.0
2018-Feb-01 17:30N 36°47' W 076°18'0 0.0
2018-Feb-01 17:00N 36°47' W 076°18'0 0.0
2018-Feb-01 16:30N 36°47' W 076°18'0 0.0
2018-Feb-01 16:00N 36°47' W 076°18'0 0.0
2018-Feb-01 15:30N 36°47' W 076°18'0 0.0
2018-Feb-01 15:00N 36°47' W 076°18'0 0.0
2018-Feb-01 13:30N 36°47' W 076°18'0 0.0
2018-Feb-01 13:00N 36°47' W 076°18'0 0.0
2018-Feb-01 12:30N 36°47' W 076°18'0 0.0
2018-Feb-01 12:00N 36°47' W 076°18'0 0.0
2018-Feb-01 11:00N 36°47' W 076°18'0 0.0
2018-Feb-01 10:30N 36°47' W 076°18'0 0.0
2018-Feb-01 10:00N 36°47' W 076°18'0 0.0
2018-Feb-01 09:30N 36°47' W 076°18'0 0.0
2018-Feb-01 09:00N 36°47' W 076°18'0 0.0
2018-Feb-01 08:30N 36°47' W 076°18'0 0.0
2018-Feb-01 07:30N 36°47' W 076°18'0 0.0
2018-Feb-01 07:00N 36°47' W 076°18'0 0.0
2018-Feb-01 06:30N 36°47' W 076°18'0 0.0
2018-Feb-01 06:00N 36°47' W 076°18'0 0.0
2018-Feb-01 05:30N 36°47' W 076°18'0 0.0
2018-Feb-01 05:00N 36°47' W 076°18'0 0.0
2018-Feb-01 04:30N 36°47' W 076°18'0 0.0
2018-Feb-01 04:00N 36°47' W 076°18'0 0.0
2018-Feb-01 03:00N 36°47' W 076°18'0 0.0
2018-Feb-01 02:27N 36°47' W 076°18'0 0.0
2018-Feb-01 02:00N 36°47' W 076°18'0 0.0
2018-Feb-01 01:24N 36°47' W 076°18'0 0.0
2018-Feb-01 01:00N 36°47' W 076°18'0 0.0
2018-Feb-01 00:30N 36°47' W 076°18'0 0.0
2018-Feb-01 00:00N 36°47' W 076°18'0 0.0
2018-Jan-31 23:00N 36°47' W 076°18'0 0.0
2018-Jan-31 22:30N 36°47' W 076°18'0 0.0
2018-Jan-31 21:00N 36°47' W 076°18'0 0.0
2018-Jan-31 20:30N 36°47' W 076°18'0 0.0
2018-Jan-31 20:00N 36°47' W 076°18'0 0.0
2018-Jan-31 19:30N 36°47' W 076°18'0 0.0
2018-Jan-31 19:00N 36°47' W 076°18'0 0.0
2018-Jan-31 18:30N 36°47' W 076°18'0 0.0
2018-Jan-31 17:57N 36°47' W 076°18'0 0.0
2018-Jan-31 17:30N 36°47' W 076°18'0 0.0
2018-Jan-31 17:00N 36°47' W 076°18'0 0.0
2018-Jan-31 16:30N 36°47' W 076°18'0 0.0
2018-Jan-31 16:00N 36°47' W 076°18'0 0.0
2018-Jan-31 15:30N 36°47' W 076°18'0 0.0
2018-Jan-31 15:00N 36°47' W 076°18'0 0.0
2018-Jan-31 14:30N 36°47' W 076°18'0 0.0
2018-Jan-31 13:00N 36°47' W 076°18'0 0.0
2018-Jan-31 12:30N 36°47' W 076°18'0 0.0
2018-Jan-31 12:00N 36°47' W 076°18'0 0.0
2018-Jan-31 11:30N 36°47' W 076°18'0 0.0
2018-Jan-31 11:00N 36°47' W 076°18'0 0.0
2018-Jan-31 10:30N 36°47' W 076°18'0 0.0
2018-Jan-31 10:00N 36°47' W 076°18'0 0.0
2018-Jan-31 09:30N 36°47' W 076°18'0 0.0
2018-Jan-31 08:57N 36°47' W 076°18'0 0.0
2018-Jan-31 08:30N 36°47' W 076°18'0 0.0
2018-Jan-31 08:00N 36°47' W 076°18'0 0.0
2018-Jan-31 07:30N 36°47' W 076°18'0 0.0
2018-Jan-31 07:00N 36°47' W 076°18'0 0.0
2018-Jan-31 06:30N 36°47' W 076°18'0 0.0
2018-Jan-31 06:00N 36°47' W 076°18'0 0.0
2018-Jan-31 05:30N 36°47' W 076°18'0 0.0
2018-Jan-31 05:00N 36°47' W 076°18'0 0.0
2018-Jan-31 04:30N 36°47' W 076°18'0 0.0
2018-Jan-31 04:00N 36°47' W 076°18'0 0.0
2018-Jan-31 03:30N 36°47' W 076°18'0 0.0
2018-Jan-31 03:00N 36°47' W 076°18'0 0.0
2018-Jan-31 02:30N 36°47' W 076°18'0 0.0
2018-Jan-31 02:00N 36°47' W 076°18'0 0.0
2018-Jan-31 01:30N 36°47' W 076°18'0 0.0
2018-Jan-31 01:00N 36°47' W 076°18'0 0.0
2018-Jan-31 00:00N 36°47' W 076°18'0 0.0
2018-Jan-30 23:30N 36°47' W 076°18'0 0.0
2018-Jan-30 23:00N 36°47' W 076°18'0 0.0
2018-Jan-30 22:30N 36°47' W 076°18'0 0.0
2018-Jan-30 21:30N 36°47' W 076°18'0 0.0
2018-Jan-30 20:57N 36°47' W 076°18'0 0.0
2018-Jan-30 20:27N 36°47' W 076°18'0 0.0
2018-Jan-30 20:00N 36°47' W 076°18'0 0.0
2018-Jan-30 19:30N 36°47' W 076°18'0 0.0
2018-Jan-30 19:00N 36°47' W 076°18'0 0.0
2018-Jan-30 18:30N 36°47' W 076°18'0 0.0
2018-Jan-30 18:00N 36°47' W 076°18'0 0.0
2018-Jan-30 17:30N 36°47' W 076°18'0 0.0
2018-Jan-30 17:00N 36°47' W 076°18'0 0.0
2018-Jan-30 16:30N 36°47' W 076°18'0 0.0
2018-Jan-30 16:00N 36°47' W 076°18'0 0.0
2018-Jan-30 15:30N 36°47' W 076°18'0 0.0
2018-Jan-30 15:00N 36°47' W 076°18'0 0.0
2018-Jan-30 14:30N 36°47' W 076°18'0 0.0
2018-Jan-30 13:30N 36°47' W 076°18'0 0.0
2018-Jan-30 13:00N 36°47' W 076°18'0 0.0
2018-Jan-30 12:30N 36°47' W 076°18'0 0.0
2018-Jan-30 11:57N 36°47' W 076°18'0 0.0
2018-Jan-30 11:30N 36°47' W 076°18'0 0.0
2018-Jan-30 10:30N 36°47' W 076°18'0 0.0
2018-Jan-30 09:27N 36°47' W 076°18'0 0.0
2018-Jan-30 09:00N 36°47' W 076°18'0 0.0
2018-Jan-30 08:30N 36°47' W 076°18'0 0.0
2018-Jan-30 08:00N 36°47' W 076°18'0 0.0
2018-Jan-30 07:30N 36°47' W 076°18'0 0.0
2018-Jan-30 06:57N 36°47' W 076°18'0 0.0
2018-Jan-30 06:30N 36°47' W 076°18'0 0.0
2018-Jan-30 06:00N 36°47' W 076°18'0 0.0
2018-Jan-30 05:30N 36°47' W 076°18'0 0.0
2018-Jan-30 05:00N 36°47' W 076°18'0 0.0
2018-Jan-30 04:30N 36°47' W 076°18'0 0.0
2018-Jan-30 04:00N 36°47' W 076°18'0 0.0
2018-Jan-30 03:30N 36°47' W 076°18'0 0.0
2018-Jan-30 03:00N 36°47' W 076°18'0 0.0
2018-Jan-30 02:30N 36°47' W 076°18'0 0.0
2018-Jan-30 02:00N 36°47' W 076°18'0 0.0
2018-Jan-30 01:30N 36°47' W 076°18'0 0.0
2018-Jan-30 01:00N 36°47' W 076°18'0 0.0
2018-Jan-30 00:30N 36°47' W 076°18'0 0.0
2018-Jan-30 00:00N 36°47' W 076°18'0 0.0
2018-Jan-29 23:30N 36°47' W 076°18'0 0.0
2018-Jan-29 23:00N 36°47' W 076°18'0 0.0
2018-Jan-29 22:30N 36°47' W 076°18'0 0.0
2018-Jan-29 22:00N 36°47' W 076°18'0 0.0
2018-Jan-29 21:30N 36°47' W 076°18'0 0.0
2018-Jan-29 21:00N 36°47' W 076°18'0 0.0
2018-Jan-29 20:30N 36°47' W 076°18'0 0.0
2018-Jan-29 20:00N 36°47' W 076°18'0 0.0
2018-Jan-29 19:30N 36°47' W 076°18'0 0.0
2018-Jan-29 19:00N 36°47' W 076°18'0 0.0
2018-Jan-29 18:30N 36°47' W 076°18'0 0.0
2018-Jan-29 18:00N 36°47' W 076°18'0 0.0
2018-Jan-29 17:30N 36°47' W 076°18'0 0.0
2018-Jan-29 17:00N 36°47' W 076°18'0 0.0
2018-Jan-29 16:30N 36°47' W 076°18'0 0.0
2018-Jan-29 16:00N 36°47' W 076°18'0 0.0
2018-Jan-29 15:30N 36°47' W 076°18'0 0.0
2018-Jan-29 15:00N 36°47' W 076°18'0 0.0
2018-Jan-29 14:30N 36°47' W 076°18'0 0.0
2018-Jan-29 14:00N 36°47' W 076°18'0 0.0
2018-Jan-29 13:30N 36°47' W 076°18'0 0.0
2018-Jan-29 13:00N 36°47' W 076°18'0 0.0
2018-Jan-29 12:30N 36°47' W 076°18'0 0.0
2018-Jan-29 12:00N 36°47' W 076°18'0 0.0
2018-Jan-29 11:30N 36°47' W 076°18'0 0.0
2018-Jan-29 11:00N 36°47' W 076°18'0 0.0
2018-Jan-29 10:30N 36°47' W 076°18'0 0.0
2018-Jan-29 10:00N 36°47' W 076°18'0 0.0
2018-Jan-29 09:30N 36°47' W 076°18'0 0.0
2018-Jan-29 09:00N 36°47' W 076°18'0 0.0
2018-Jan-29 08:30N 36°47' W 076°18'0 0.0
2018-Jan-29 08:00N 36°47' W 076°18'0 0.0
2018-Jan-29 07:30N 36°47' W 076°18'0 0.0
2018-Jan-29 07:00N 36°47' W 076°18'0 0.0
2018-Jan-29 06:30N 36°47' W 076°18'0 0.0
2018-Jan-29 06:00N 36°47' W 076°18'0 0.0
2018-Jan-29 05:30N 36°47' W 076°18'0 0.0
2018-Jan-29 05:00N 36°47' W 076°18'0 0.0
2018-Jan-29 04:30N 36°47' W 076°18'0 0.0
2018-Jan-29 04:00N 36°47' W 076°18'0 0.0
2018-Jan-29 03:30N 36°47' W 076°18'0 0.0
2018-Jan-29 03:00N 36°47' W 076°18'0 0.0
2018-Jan-29 02:30N 36°47' W 076°18'0 0.0
2018-Jan-29 02:00N 36°47' W 076°18'0 0.0
2018-Jan-29 01:30N 36°47' W 076°18'0 0.0
2018-Jan-29 01:00N 36°47' W 076°18'0 0.0
2018-Jan-29 00:30N 36°47' W 076°18'0 0.0
2018-Jan-29 00:00N 36°47' W 076°18'0 0.0
2018-Jan-28 23:30N 36°47' W 076°18'0 0.0
2018-Jan-28 23:00N 36°47' W 076°18'0 0.0
2018-Jan-28 22:30N 36°47' W 076°18'0 0.0
2018-Jan-28 22:00N 36°47' W 076°18'0 0.0
2018-Jan-28 21:30N 36°47' W 076°18'0 0.0
2018-Jan-28 21:00N 36°47' W 076°18'0 0.0
2018-Jan-28 20:30N 36°47' W 076°18'0 0.0
2018-Jan-28 20:00N 36°47' W 076°18'0 0.0
2018-Jan-28 19:30N 36°47' W 076°18'0 0.0
2018-Jan-28 19:00N 36°47' W 076°18'0 0.0
2018-Jan-28 18:30N 36°47' W 076°18'0 0.0
2018-Jan-28 18:00N 36°47' W 076°18'0 0.0
2018-Jan-28 17:30N 36°47' W 076°18'0 0.0
2018-Jan-28 17:00N 36°47' W 076°18'0 0.0
2018-Jan-28 16:30N 36°47' W 076°18'0 0.0
2018-Jan-28 16:00N 36°47' W 076°18'0 0.0
2018-Jan-28 15:30N 36°47' W 076°18'0 0.0
2018-Jan-28 15:00N 36°47' W 076°18'0 0.0
2018-Jan-28 14:30N 36°47' W 076°18'0 0.0
2018-Jan-28 14:00N 36°47' W 076°18'0 0.0
2018-Jan-28 13:30N 36°47' W 076°18'0 0.0
2018-Jan-28 13:00N 36°47' W 076°18'0 0.0
2018-Jan-28 12:30N 36°47' W 076°18'0 0.0
2018-Jan-28 12:00N 36°47' W 076°18'0 0.0
2018-Jan-28 11:30N 36°47' W 076°18'0 0.0
2018-Jan-28 11:00N 36°47' W 076°18'0 0.0
2018-Jan-28 10:30N 36°47' W 076°18'0 0.0
2018-Jan-28 10:00N 36°47' W 076°18'0 0.0
2018-Jan-28 09:30N 36°47' W 076°18'0 0.0
2018-Jan-28 09:00N 36°47' W 076°18'0 0.0
2018-Jan-28 08:30N 36°47' W 076°18'0 0.0
2018-Jan-28 08:00N 36°47' W 076°18'0 0.0
2018-Jan-28 07:30N 36°47' W 076°18'0 0.0
2018-Jan-28 07:00N 36°47' W 076°18'0 0.0
2018-Jan-28 06:30N 36°47' W 076°18'0 0.0
2018-Jan-28 06:00N 36°47' W 076°18'0 0.0
2018-Jan-28 05:30N 36°47' W 076°18'0 0.0
2018-Jan-28 05:00N 36°47' W 076°18'0 0.0
2018-Jan-28 04:30N 36°47' W 076°18'0 0.0
2018-Jan-28 04:00N 36°47' W 076°18'0 0.0
2018-Jan-28 03:30N 36°47' W 076°18'0 0.0
2018-Jan-28 03:00N 36°47' W 076°18'0 0.0
2018-Jan-28 02:30N 36°47' W 076°18'0 0.0
2018-Jan-28 02:00N 36°47' W 076°18'0 0.0
2018-Jan-28 01:30N 36°47' W 076°18'0 0.0
2018-Jan-28 01:00N 36°47' W 076°18'0 0.0
2018-Jan-28 00:30N 36°47' W 076°18'0 0.0
2018-Jan-28 00:00N 36°47' W 076°18'0 0.0
2018-Jan-27 23:30N 36°47' W 076°18'0 0.0
2018-Jan-27 23:00N 36°47' W 076°18'0 0.0
2018-Jan-27 22:30N 36°47' W 076°18'0 0.0
2018-Jan-27 22:00N 36°47' W 076°18'0 0.0
2018-Jan-27 21:30N 36°47' W 076°18'0 0.0
2018-Jan-27 21:00N 36°47' W 076°18'0 0.0
2018-Jan-27 20:30N 36°47' W 076°18'0 0.0
2018-Jan-27 20:00N 36°47' W 076°18'0 0.0
2018-Jan-27 19:30N 36°47' W 076°18'0 0.0
2018-Jan-27 19:00N 36°47' W 076°18'0 0.0
2018-Jan-27 18:30N 36°47' W 076°18'0 0.0
2018-Jan-27 18:00N 36°47' W 076°18'0 0.0
2018-Jan-27 17:30N 36°47' W 076°18'0 0.0
2018-Jan-27 17:00N 36°47' W 076°18'0 0.1
2018-Jan-27 16:30N 36°47' W 076°18'1 2.2
2018-Jan-27 16:00N 36°48' W 076°18'2 4.2
2018-Jan-27 15:30N 36°50' W 076°18'3 5.7
2018-Jan-27 15:00N 36°52' W 076°20'4 8.5
2018-Jan-27 14:30N 36°56' W 076°20'4 9.1
2018-Jan-27 14:01N 37°00' W 076°17'611.4
2018-Jan-27 13:30N 36°59' W 076°10'612.5
2018-Jan-27 13:00N 36°57' W 076°03'5 9.5
2018-Jan-27 12:30N 36°56' W 075°57'4 7.8
2018-Jan-27 12:00N 36°54' W 075°53'  
2018-Jan-25 00:23N 38°45' W 075°01'410.9
2018-Jan-24 23:59N 38°49' W 075°04'712.9
2018-Jan-24 23:25N 38°56' W 075°06'614.8
2018-Jan-24 23:00N 39°02' W 075°09'714.4
2018-Jan-24 22:30N 39°08' W 075°14'713.8
2018-Jan-24 22:00N 39°14' W 075°18'713.3
2018-Jan-24 21:30N 39°19' W 075°24'612.5
2018-Jan-24 21:00N 39°23' W 075°29'611.5
2018-Jan-24 20:30N 39°28' W 075°34'611.3
2018-Jan-24 20:00N 39°34' W 075°33'5 9.9
2018-Jan-24 19:30N 39°39' W 075°34'510.8
2018-Jan-24 19:01N 39°43' W 075°30'510.1
2018-Jan-24 18:30N 39°47' W 075°27'5 9.4
2018-Jan-24 18:00N 39°50' W 075°22'510.2
2018-Jan-24 17:30N 39°51' W 075°15'4 8.5
2018-Jan-24 17:01N 39°53' W 075°10'3 5.7
2018-Jan-24 16:31N 39°55' W 075°08'4 7.5
2018-Jan-24 16:00N 39°59' W 075°05'  

Dump ship's entire track history